createdAt,value
2023-04-18T00:01:16.756Z,22.80
2023-04-18T00:03:45.704Z,22.79
2023-04-18T00:06:13.870Z,22.78
2023-04-18T00:08:40.403Z,22.80
2023-04-18T00:11:06.978Z,22.78
2023-04-18T00:13:33.483Z,22.78
2023-04-18T00:16:00.034Z,22.79
2023-04-18T00:18:26.648Z,22.77
2023-04-18T00:20:53.666Z,22.77
2023-04-18T00:23:21.412Z,22.76
2023-04-18T00:25:57.207Z,22.77
2023-04-18T00:28:23.732Z,22.76
2023-04-18T00:30:50.343Z,22.77
2023-04-18T00:33:16.911Z,22.76
2023-04-18T00:35:43.574Z,22.76
2023-04-18T00:38:10.047Z,22.77
2023-04-18T00:40:36.729Z,22.76
2023-04-18T00:43:03.396Z,22.77
2023-04-18T00:45:29.953Z,22.77
2023-04-18T00:47:56.634Z,22.76
2023-04-18T00:50:23.599Z,22.77
2023-04-18T00:52:50.139Z,22.76
2023-04-18T00:55:16.627Z,22.76
2023-04-18T00:57:43.448Z,22.76
2023-04-18T01:00:10.408Z,22.76
2023-04-18T01:02:37.658Z,22.76
2023-04-18T01:05:04.400Z,22.75
2023-04-18T01:07:31.195Z,22.76
2023-04-18T01:09:57.823Z,22.75
2023-04-18T01:12:24.505Z,22.76
2023-04-18T01:14:50.965Z,22.76
2023-04-18T01:17:19.246Z,22.75
2023-04-18T01:19:46.797Z,22.75
2023-04-18T01:22:13.762Z,22.74
2023-04-18T01:24:41.000Z,22.73
2023-04-18T01:27:11.228Z,22.72
2023-04-18T01:29:39.001Z,22.71
2023-04-18T01:32:06.017Z,22.70
2023-04-18T01:34:32.550Z,22.70
2023-04-18T01:36:59.352Z,22.69
2023-04-18T01:39:25.852Z,22.69
2023-04-18T01:41:52.489Z,22.68
2023-04-18T01:44:18.952Z,22.70
2023-04-18T01:46:46.045Z,22.69
2023-04-18T01:49:12.760Z,22.68
2023-04-18T01:51:39.475Z,22.69
2023-04-18T01:54:06.024Z,22.69
2023-04-18T01:56:32.574Z,22.69
2023-04-18T01:59:00.670Z,22.68
2023-04-18T02:01:27.907Z,22.68
2023-04-18T02:03:54.535Z,22.68
2023-04-18T02:06:21.365Z,22.66
2023-04-18T02:08:47.912Z,22.66
2023-04-18T02:11:14.453Z,22.66
2023-04-18T02:13:41.163Z,22.67
2023-04-18T02:16:12.012Z,22.66
2023-04-18T02:18:40.074Z,22.65
2023-04-18T02:21:07.191Z,22.65
2023-04-18T02:23:33.737Z,22.64
2023-04-18T02:26:00.276Z,22.64
2023-04-18T02:28:26.761Z,22.64
2023-04-18T02:30:54.200Z,22.65
2023-04-18T02:33:20.700Z,22.63
2023-04-18T02:35:47.140Z,22.64
2023-04-18T02:38:15.776Z,22.64
2023-04-18T02:40:42.361Z,22.63
2023-04-18T02:43:08.907Z,22.62
2023-04-18T02:45:35.574Z,22.63
2023-04-18T02:48:02.915Z,22.62
2023-04-18T02:50:30.889Z,22.62
2023-04-18T02:52:58.141Z,22.61
2023-04-18T02:55:32.649Z,22.61
2023-04-18T02:58:00.422Z,22.61
2023-04-18T03:01:05.551Z,22.61
2023-04-18T03:03:49.097Z,22.60
2023-04-18T03:06:32.581Z,22.59
2023-04-18T03:09:02.726Z,22.58
2023-04-18T03:11:31.326Z,22.59
2023-04-18T03:13:58.143Z,22.59
2023-04-18T03:16:29.536Z,22.59
2023-04-18T03:18:56.256Z,22.59
2023-04-18T03:21:23.136Z,22.57
2023-04-18T03:23:50.328Z,22.57
2023-04-18T03:26:16.925Z,22.57
2023-04-18T03:28:45.208Z,22.57
2023-04-18T03:31:12.296Z,22.56
2023-04-18T03:33:42.427Z,22.55
2023-04-18T03:36:10.692Z,22.56
2023-04-18T03:38:38.501Z,22.55
2023-04-18T03:41:05.696Z,22.56
2023-04-18T03:43:34.876Z,22.55
2023-04-18T03:46:01.459Z,22.55
2023-04-18T03:48:29.065Z,22.55
2023-04-18T03:50:59.309Z,22.54
2023-04-18T03:53:25.968Z,22.54
2023-04-18T03:55:54.242Z,22.53
2023-04-18T03:58:24.902Z,22.52
2023-04-18T04:00:52.672Z,22.53
2023-04-18T04:03:19.623Z,22.53
2023-04-18T04:05:46.413Z,22.53
2023-04-18T04:08:15.226Z,22.51
2023-04-18T04:10:41.947Z,22.51
2023-04-18T04:13:08.713Z,22.51
2023-04-18T04:15:38.724Z,22.51
2023-04-18T04:18:07.393Z,22.50
2023-04-18T04:20:36.750Z,22.51
2023-04-18T04:23:10.318Z,22.49
2023-04-18T04:25:39.146Z,22.50
2023-04-18T04:28:14.341Z,22.49
2023-04-18T04:30:50.875Z,22.48
2023-04-18T04:33:19.422Z,22.48
2023-04-18T04:35:49.783Z,22.49
2023-04-18T04:38:19.963Z,22.50
2023-04-18T04:40:47.575Z,22.48
2023-04-18T04:43:15.662Z,22.48
2023-04-18T04:45:44.630Z,22.48
2023-04-18T04:48:11.828Z,22.47
2023-04-18T04:50:38.893Z,22.47
2023-04-18T04:53:06.259Z,22.47
2023-04-18T04:55:33.634Z,22.47
2023-04-18T04:58:01.515Z,22.46
2023-04-18T05:00:53.087Z,22.46
2023-04-18T05:03:20.339Z,22.46
2023-04-18T05:05:47.168Z,22.45
2023-04-18T05:08:13.720Z,22.45
2023-04-18T05:10:40.888Z,22.45
2023-04-18T05:13:07.396Z,22.46
2023-04-18T05:15:33.988Z,22.51
2023-04-18T05:18:00.586Z,22.56
2023-04-18T05:20:27.076Z,22.62
2023-04-18T05:22:53.713Z,22.68
2023-04-18T05:25:20.407Z,22.73
2023-04-18T05:27:47.163Z,22.74
2023-04-18T05:30:13.893Z,22.73
2023-04-18T05:32:40.665Z,22.71
2023-04-18T05:35:07.519Z,22.70
2023-04-18T05:37:34.116Z,22.68
2023-04-18T05:40:01.081Z,22.64
2023-04-18T05:42:27.847Z,22.63
2023-04-18T05:44:54.393Z,22.60
2023-04-18T05:47:21.159Z,22.58
2023-04-18T05:49:47.751Z,22.58
2023-04-18T05:52:14.292Z,22.58
2023-04-18T05:54:41.260Z,22.58
2023-04-18T05:57:07.747Z,22.58
2023-04-18T05:59:34.229Z,22.59
2023-04-18T06:02:00.960Z,22.59
2023-04-18T06:04:27.871Z,22.60
2023-04-18T06:06:54.689Z,22.60
2023-04-18T06:09:21.236Z,22.58
2023-04-18T06:11:47.726Z,22.59
2023-04-18T06:14:14.401Z,22.60
2023-04-18T06:16:41.052Z,22.63
2023-04-18T06:19:07.610Z,22.63
2023-04-18T06:21:34.160Z,22.63
2023-04-18T06:24:01.562Z,22.63
2023-04-18T06:26:28.239Z,22.64
2023-04-18T06:28:54.795Z,22.62
2023-04-18T06:31:21.378Z,22.60
2023-04-18T06:33:47.871Z,22.57
2023-04-18T06:36:14.513Z,22.57
2023-04-18T06:38:40.988Z,22.57
2023-04-18T06:41:07.540Z,22.58
2023-04-18T06:43:35.840Z,22.57
2023-04-18T06:46:04.055Z,22.57
2023-04-18T06:48:30.720Z,22.58
2023-04-18T06:50:57.244Z,22.56
2023-04-18T06:53:23.839Z,22.56
2023-04-18T06:55:50.415Z,22.56
2023-04-18T06:58:16.934Z,22.56
2023-04-18T07:00:43.597Z,22.57
2023-04-18T07:03:13.044Z,22.57
2023-04-18T07:05:40.017Z,22.57
2023-04-18T07:08:06.531Z,22.58
2023-04-18T07:10:33.004Z,22.59
2023-04-18T07:12:59.557Z,22.59
2023-04-18T07:15:26.111Z,22.59
2023-04-18T07:17:52.891Z,22.58
2023-04-18T07:20:19.499Z,22.58
2023-04-18T07:22:46.042Z,22.59
2023-04-18T07:25:13.249Z,22.59
2023-04-18T07:27:39.967Z,22.60
2023-04-18T07:30:06.878Z,22.59
2023-04-18T07:32:33.425Z,22.61
2023-04-18T07:35:00.000Z,22.62
2023-04-18T07:37:26.642Z,22.63
2023-04-18T07:39:53.208Z,22.63
2023-04-18T07:42:19.806Z,22.64
2023-04-18T07:44:46.949Z,22.65
2023-04-18T07:47:13.412Z,22.66
2023-04-18T07:49:40.014Z,22.67
2023-04-18T07:52:06.492Z,22.67
2023-04-18T07:54:33.051Z,22.68
2023-04-18T07:56:59.626Z,22.69
2023-04-18T07:59:26.250Z,22.70
2023-04-18T08:01:52.770Z,22.71
2023-04-18T08:04:19.478Z,22.70
2023-04-18T08:06:46.189Z,22.71
2023-04-18T08:09:13.046Z,22.71
2023-04-18T08:11:41.285Z,22.71
2023-04-18T08:14:07.863Z,22.72
2023-04-18T08:16:36.469Z,22.73
2023-04-18T08:19:03.210Z,22.73
2023-04-18T08:21:29.670Z,22.73
2023-04-18T08:23:56.935Z,22.72
2023-04-18T08:26:23.487Z,22.73
2023-04-18T08:28:50.103Z,22.74
2023-04-18T08:31:17.102Z,22.74
2023-04-18T08:33:43.737Z,22.74
2023-04-18T08:36:10.490Z,22.74
2023-04-18T08:38:37.574Z,22.74
2023-04-18T08:41:04.303Z,22.75
2023-04-18T08:43:31.270Z,22.74
2023-04-18T08:45:58.679Z,22.75
2023-04-18T08:48:26.457Z,22.75
2023-04-18T08:50:54.226Z,22.76
2023-04-18T08:53:21.070Z,22.76
2023-04-18T08:55:50.501Z,22.76
2023-04-18T08:58:20.148Z,22.76
2023-04-18T09:00:49.847Z,22.76
2023-04-18T09:03:16.788Z,22.77
2023-04-18T09:05:43.288Z,22.75
2023-04-18T09:08:30.283Z,22.76
2023-04-18T09:10:56.998Z,22.76
2023-04-18T09:13:47.381Z,22.77
2023-04-18T09:16:16.519Z,22.76
2023-04-18T09:18:47.923Z,22.76
2023-04-18T09:21:21.477Z,22.76
2023-04-18T09:23:48.138Z,22.76
2023-04-18T09:26:14.638Z,22.76
2023-04-18T09:28:41.336Z,22.76
2023-04-18T09:31:17.378Z,22.77
2023-04-18T09:33:52.814Z,22.76
2023-04-18T09:36:19.629Z,22.74
2023-04-18T09:38:46.478Z,22.75
2023-04-18T09:41:13.501Z,22.75
2023-04-18T09:43:40.373Z,22.76
2023-04-18T09:46:07.532Z,22.76
2023-04-18T09:48:34.151Z,22.76
2023-04-18T09:51:01.641Z,22.75
2023-04-18T09:53:28.193Z,22.77
2023-04-18T09:55:57.116Z,22.77
2023-04-18T09:58:25.258Z,22.75
2023-04-18T10:00:53.488Z,22.76
2023-04-18T10:03:20.809Z,22.77
2023-04-18T10:05:47.606Z,22.77
2023-04-18T10:08:14.132Z,22.77
2023-04-18T10:10:41.444Z,22.77
2023-04-18T10:13:09.245Z,22.78
2023-04-18T10:15:35.773Z,22.78
2023-04-18T10:18:05.649Z,22.79
2023-04-18T10:20:35.217Z,22.80
2023-04-18T10:23:21.725Z,22.78
2023-04-18T10:25:49.698Z,22.79
2023-04-18T10:28:17.493Z,22.79
2023-04-18T10:30:44.450Z,22.79
2023-04-18T10:36:06.402Z,22.80
2023-04-18T10:38:33.968Z,22.78
2023-04-18T10:41:15.879Z,22.80
2023-04-18T10:44:15.372Z,22.81
2023-04-18T10:46:52.974Z,22.79
2023-04-18T10:49:21.326Z,22.80
2023-04-18T10:51:50.017Z,22.79
2023-04-18T10:54:31.098Z,22.80
2023-04-18T10:56:59.373Z,22.80
2023-04-18T10:59:26.954Z,22.80
2023-04-18T11:01:55.691Z,22.80
2023-04-18T11:04:22.289Z,22.80
2023-04-18T11:06:49.948Z,22.80
2023-04-18T11:09:16.537Z,22.81
2023-04-18T11:11:44.256Z,22.82
2023-04-18T11:14:11.020Z,22.83
2023-04-18T11:16:38.084Z,22.83
2023-04-18T11:19:20.978Z,22.83
2023-04-18T11:21:47.671Z,22.82
2023-04-18T11:24:21.671Z,22.82
2023-04-18T11:26:48.334Z,22.81
2023-04-18T11:29:16.907Z,22.82
2023-04-18T11:31:49.775Z,22.81
2023-04-18T11:34:16.443Z,22.81
2023-04-18T11:36:43.325Z,22.81
2023-04-18T11:39:10.907Z,22.82
2023-04-18T11:41:37.710Z,22.84
2023-04-18T11:44:05.935Z,22.83
2023-04-18T11:46:38.903Z,22.84
2023-04-18T11:49:05.594Z,22.83
2023-04-18T11:51:34.658Z,22.85
2023-04-18T11:54:01.454Z,22.86
2023-04-18T11:56:27.996Z,22.86
2023-04-18T11:58:54.609Z,22.86
2023-04-18T12:01:25.058Z,22.87
2023-04-18T12:04:01.584Z,22.88
2023-04-18T12:06:29.734Z,22.88
2023-04-18T12:09:00.278Z,22.87
2023-04-18T12:11:26.963Z,22.89
2023-04-18T12:13:54.872Z,22.88
2023-04-18T12:16:21.959Z,22.90
2023-04-18T12:18:48.464Z,22.89
2023-04-18T12:21:17.016Z,22.89
2023-04-18T12:23:45.944Z,22.89
2023-04-18T12:26:13.940Z,22.88
2023-04-18T12:28:44.337Z,22.90
2023-04-18T12:31:11.285Z,22.90
2023-04-18T12:33:37.889Z,22.90
2023-04-18T12:36:08.575Z,22.89
2023-04-18T12:38:35.372Z,22.90
2023-04-18T12:41:02.037Z,22.90
2023-04-18T12:43:28.956Z,22.91
2023-04-18T12:45:55.823Z,22.91
2023-04-18T12:48:22.516Z,22.89
2023-04-18T12:50:49.014Z,22.91
2023-04-18T12:53:15.657Z,22.90
2023-04-18T12:55:42.109Z,22.90
2023-04-18T12:58:08.640Z,22.90
2023-04-18T13:00:35.601Z,22.90
2023-04-18T13:03:02.518Z,22.88
2023-04-18T13:05:33.009Z,22.88
2023-04-18T13:08:12.735Z,22.88
2023-04-18T13:10:42.710Z,22.88
2023-04-18T13:13:09.158Z,22.88
2023-04-18T13:15:36.229Z,22.88
2023-04-18T13:18:05.974Z,22.89
2023-04-18T13:20:33.125Z,22.90
2023-04-18T13:22:59.574Z,22.90
2023-04-18T13:25:26.688Z,22.89
2023-04-18T13:27:53.349Z,22.90
2023-04-18T13:30:19.969Z,22.90
2023-04-18T13:32:47.045Z,22.90
2023-04-18T13:35:13.712Z,22.88
2023-04-18T13:37:40.240Z,22.88
2023-04-18T13:40:07.258Z,22.89
2023-04-18T13:42:34.057Z,22.89
2023-04-18T13:45:01.018Z,22.88
2023-04-18T13:47:28.980Z,22.88
2023-04-18T13:49:56.047Z,22.89
2023-04-18T13:52:22.487Z,22.88
2023-04-18T13:54:49.252Z,22.86
2023-04-18T13:57:15.734Z,22.87
2023-04-18T13:59:42.305Z,22.86
2023-04-18T14:02:09.500Z,22.86
2023-04-18T14:04:36.251Z,22.86
2023-04-18T14:07:03.116Z,22.87
2023-04-18T14:09:29.759Z,22.88
2023-04-18T14:11:58.126Z,22.87
2023-04-18T14:14:24.876Z,22.88
2023-04-18T14:16:51.358Z,22.88
2023-04-18T14:19:17.881Z,22.89
2023-04-18T14:21:44.347Z,22.88
2023-04-18T14:24:11.783Z,22.91
2023-04-18T14:26:38.272Z,22.88
2023-04-18T14:29:05.093Z,22.88
2023-04-18T14:31:31.661Z,22.92
2023-04-18T14:33:58.182Z,22.92
2023-04-18T14:36:24.639Z,22.92
2023-04-18T14:38:51.288Z,22.93
2023-04-18T14:41:17.751Z,22.92
2023-04-18T14:43:44.363Z,22.92
2023-04-18T14:46:12.288Z,22.91
2023-04-18T14:48:38.996Z,22.90
2023-04-18T14:51:05.725Z,22.90
2023-04-18T14:53:32.326Z,22.85
2023-04-18T14:55:58.802Z,22.80
2023-04-18T14:58:25.432Z,22.74
2023-04-18T15:00:51.971Z,22.71
2023-04-18T15:03:18.653Z,22.69
2023-04-18T15:05:48.320Z,22.68
2023-04-18T15:08:15.838Z,22.67
2023-04-18T15:10:42.596Z,22.67
2023-04-18T15:13:09.517Z,22.66
2023-04-18T15:15:36.614Z,22.66
2023-04-18T15:18:03.476Z,22.67
2023-04-18T15:20:30.400Z,22.66
2023-04-18T15:22:57.143Z,22.66
2023-04-18T15:25:23.715Z,22.66
2023-04-18T15:27:50.273Z,22.67
2023-04-18T15:30:16.743Z,22.66
2023-04-18T15:32:44.061Z,22.68
2023-04-18T15:35:10.655Z,22.68
2023-04-18T15:37:37.404Z,22.68
2023-04-18T15:40:09.184Z,22.68
2023-04-18T15:42:35.789Z,22.70
2023-04-18T15:45:03.975Z,22.68
2023-04-18T15:47:31.163Z,22.68
2023-04-18T15:49:57.722Z,22.69
2023-04-18T15:52:24.202Z,22.69
2023-04-18T15:54:51.829Z,22.70
2023-04-18T15:57:18.501Z,22.70
2023-04-18T15:59:44.999Z,22.71
2023-04-18T16:02:11.647Z,22.71
2023-04-18T16:04:38.201Z,22.71
2023-04-18T16:07:04.948Z,22.71
2023-04-18T16:09:31.483Z,22.71
2023-04-18T16:11:57.934Z,22.71
2023-04-18T16:14:24.451Z,22.71
2023-04-18T16:16:50.971Z,22.72
2023-04-18T16:19:17.592Z,22.71
2023-04-18T16:21:47.206Z,22.72
2023-04-18T16:24:14.932Z,22.73
2023-04-18T16:26:41.642Z,22.73
2023-04-18T16:29:08.122Z,22.74
2023-04-18T16:31:34.972Z,22.72
2023-04-18T16:34:03.122Z,22.73
2023-04-18T16:36:29.773Z,22.72
2023-04-18T16:38:56.280Z,22.72
2023-04-18T16:41:22.736Z,22.72
2023-04-18T16:43:49.245Z,22.73
2023-04-18T16:46:15.915Z,22.72
2023-04-18T16:48:42.494Z,22.72
2023-04-18T16:51:08.954Z,22.72
2023-04-18T16:53:36.030Z,22.72
2023-04-18T16:56:03.190Z,22.72
2023-04-18T16:58:29.726Z,22.72
2023-04-18T17:00:56.210Z,22.71
2023-04-18T17:03:22.805Z,22.71
2023-04-18T17:05:49.551Z,22.71
2023-04-18T17:08:16.384Z,22.70
2023-04-18T17:10:42.939Z,22.68
2023-04-18T17:13:09.567Z,22.70
2023-04-18T17:15:36.521Z,22.70
2023-04-18T17:18:03.704Z,22.70
2023-04-18T17:20:30.275Z,22.69
2023-04-18T17:22:57.235Z,22.70
2023-04-18T17:25:23.736Z,22.70
2023-04-18T17:27:50.251Z,22.68
2023-04-18T17:30:16.781Z,22.68
2023-04-18T17:32:45.877Z,22.67
2023-04-18T17:35:14.493Z,22.67
2023-04-18T17:37:42.019Z,22.66
2023-04-18T17:40:09.847Z,22.66
2023-04-18T17:42:36.837Z,22.65
2023-04-18T17:45:04.071Z,22.65
2023-04-18T17:47:32.494Z,22.65
2023-04-18T17:49:59.723Z,22.66
2023-04-18T17:52:28.307Z,22.64
2023-04-18T17:54:55.409Z,22.63
2023-04-18T17:57:22.306Z,22.62
2023-04-18T17:59:49.224Z,22.62
2023-04-18T18:02:15.831Z,22.62
2023-04-18T18:04:42.591Z,22.61
2023-04-18T18:07:09.110Z,22.60
2023-04-18T18:09:35.721Z,22.60
2023-04-18T18:12:02.600Z,22.59
2023-04-18T18:14:29.103Z,22.59
2023-04-18T18:16:56.012Z,22.60
2023-04-18T18:19:22.616Z,22.58
2023-04-18T18:21:49.692Z,22.58
2023-04-18T18:24:18.543Z,22.58
2023-04-18T18:26:45.590Z,22.58
2023-04-18T18:29:12.297Z,22.56
2023-04-18T18:31:39.067Z,22.58
2023-04-18T18:34:05.811Z,22.57
2023-04-18T18:36:32.351Z,22.56
2023-04-18T18:38:58.833Z,22.56
2023-04-18T18:41:25.394Z,22.56
2023-04-18T18:43:51.941Z,22.56
2023-04-18T18:46:18.627Z,22.54
2023-04-18T18:48:45.202Z,22.55
2023-04-18T18:51:11.800Z,22.55
2023-04-18T18:53:40.322Z,22.54
2023-04-18T18:56:08.686Z,22.55
2023-04-18T18:58:35.879Z,22.54
2023-04-18T19:01:03.290Z,22.55
2023-04-18T19:03:30.344Z,22.55
2023-04-18T19:05:57.010Z,22.55
2023-04-18T19:08:23.664Z,22.54
2023-04-18T19:10:50.747Z,22.54
2023-04-18T19:13:18.750Z,22.53
2023-04-18T19:15:45.276Z,22.52
2023-04-18T19:18:12.451Z,22.52
2023-04-18T19:20:40.354Z,22.53
2023-04-18T19:23:07.058Z,22.53
2023-04-18T19:25:33.569Z,22.53
2023-04-18T19:28:00.065Z,22.52
2023-04-18T19:30:26.510Z,22.53
2023-04-18T19:32:53.100Z,22.53
2023-04-18T19:35:19.785Z,22.53
2023-04-18T19:37:46.705Z,22.51
2023-04-18T19:40:14.288Z,22.52
2023-04-18T19:42:40.997Z,22.51
2023-04-18T19:45:07.725Z,22.51
2023-04-18T19:47:34.229Z,22.50
2023-04-18T19:50:01.051Z,22.51
2023-04-18T19:52:27.606Z,22.51
2023-04-18T19:54:54.727Z,22.50
2023-04-18T19:57:21.675Z,22.50
2023-04-18T19:59:48.169Z,22.50
2023-04-18T20:02:14.722Z,22.50
2023-04-18T20:04:41.885Z,22.49
2023-04-18T20:07:08.561Z,22.48
2023-04-18T20:09:35.103Z,22.49
2023-04-18T20:12:02.619Z,22.48
2023-04-18T20:14:29.198Z,22.48
2023-04-18T20:16:56.149Z,22.48
2023-04-18T20:19:24.521Z,22.49
2023-04-18T20:21:51.507Z,22.50
2023-04-18T20:24:17.995Z,22.53
2023-04-18T20:26:44.494Z,22.54
2023-04-18T20:29:11.175Z,22.55
2023-04-18T20:31:42.075Z,22.54
2023-04-18T20:34:09.646Z,22.55
2023-04-18T20:36:36.593Z,22.55
2023-04-18T20:39:03.392Z,22.55
2023-04-18T20:41:30.975Z,22.55
2023-04-18T20:43:59.847Z,22.54
2023-04-18T20:46:26.486Z,22.54
2023-04-18T20:48:53.037Z,22.55
2023-04-18T20:51:19.477Z,22.53
2023-04-18T20:53:46.005Z,22.54
2023-04-18T20:56:12.449Z,22.54
2023-04-18T20:58:38.994Z,22.54
2023-04-18T21:01:06.965Z,22.55
2023-04-18T21:03:33.760Z,22.54
2023-04-18T21:06:00.286Z,22.54
2023-04-18T21:08:26.950Z,22.53
2023-04-18T21:10:53.695Z,22.52
2023-04-18T21:13:20.953Z,22.52
2023-04-18T21:15:49.309Z,22.52
2023-04-18T21:18:15.891Z,22.53
2023-04-18T21:20:42.354Z,22.54
2023-04-18T21:23:08.886Z,22.53
2023-04-18T21:25:35.385Z,22.53
2023-04-18T21:28:02.311Z,22.52
2023-04-18T21:30:28.804Z,22.52
2023-04-18T21:32:55.347Z,22.51
2023-04-18T21:35:24.102Z,22.50
2023-04-18T21:37:51.359Z,22.51
2023-04-18T21:40:17.918Z,22.51
2023-04-18T21:42:44.531Z,22.50
2023-04-18T21:45:11.145Z,22.49
2023-04-18T21:47:38.397Z,22.49
2023-04-18T21:50:05.524Z,22.50
2023-04-18T21:52:32.107Z,22.50
2023-04-18T21:54:59.229Z,22.49
2023-04-18T21:57:25.741Z,22.50
2023-04-18T21:59:52.302Z,22.50
2023-04-18T22:02:18.970Z,22.50
2023-04-18T22:04:45.475Z,22.50
2023-04-18T22:07:12.444Z,22.48
2023-04-18T22:09:38.940Z,22.50
2023-04-18T22:12:05.479Z,22.48
2023-04-18T22:14:35.149Z,22.48
2023-04-18T22:17:03.083Z,22.48
2023-04-18T22:19:31.212Z,22.47
2023-04-18T22:21:57.766Z,22.47
2023-04-18T22:24:25.847Z,22.47
2023-04-18T22:26:52.735Z,22.47
2023-04-18T22:29:19.218Z,22.47
2023-04-18T22:31:45.690Z,22.47
2023-04-18T22:34:12.293Z,22.47
2023-04-18T22:36:38.841Z,22.46
2023-04-18T22:39:06.176Z,22.46
2023-04-18T22:41:32.684Z,22.46
2023-04-18T22:43:59.166Z,22.46
2023-04-18T22:46:26.015Z,22.46
2023-04-18T22:48:52.549Z,22.46
2023-04-18T22:51:20.162Z,22.46
2023-04-18T22:53:46.670Z,22.46
2023-04-18T22:56:13.201Z,22.46
2023-04-18T22:58:39.784Z,22.46
2023-04-18T23:01:06.301Z,22.46
2023-04-18T23:03:34.327Z,22.44
2023-04-18T23:06:01.399Z,22.46
2023-04-18T23:08:27.935Z,22.46
2023-04-18T23:10:54.409Z,22.46
2023-04-18T23:13:20.967Z,22.44
2023-04-18T23:15:47.515Z,22.45
2023-04-18T23:18:14.080Z,22.45
2023-04-18T23:20:40.649Z,22.44
2023-04-18T23:23:07.098Z,22.45
2023-04-18T23:25:33.822Z,22.45
2023-04-18T23:28:00.424Z,22.44
2023-04-18T23:30:27.012Z,22.46
2023-04-18T23:32:53.805Z,22.44
2023-04-18T23:35:20.508Z,22.44
2023-04-18T23:37:47.001Z,22.44
2023-04-18T23:40:13.499Z,22.44
2023-04-18T23:42:39.970Z,22.46
2023-04-18T23:45:06.966Z,22.45
2023-04-18T23:47:33.450Z,22.44
2023-04-18T23:50:00.035Z,22.45
2023-04-18T23:52:26.560Z,22.46
2023-04-18T23:54:53.091Z,22.44
2023-04-18T23:57:19.691Z,22.44
2023-04-18T23:59:46.212Z,22.44
